Terminal Aerodrome Forecast
Issued by NWS Greer, SC

Home | Current Version | Previous Version | Text Only | Print | Product List | Glossary On
Versions: 1 2 3 4 5 6 7 8 9 10 11 12 13 14 15 16 17 18 19 20 21
000
FTUS42 KGSP 121700
TAFGSP
TAF
KGSP 121739Z 1218/1318 16004KT P6SM SCT040
      TEMPO 1218/1222 BKN040
     FM130000 00000KT P6SM SCT050
     FM131000 21006KT 5SM HZ SCT250
     FM131400 21006KT P6SM SCT040=

USA.gov is the U.S. government's official web portal to all federal, state and local government web resources and services.